createdAt,value
2019-05-03T00:01:42.676Z,11.41
2019-05-03T00:04:17.171Z,11.28
2019-05-03T00:06:48.160Z,11.23
2019-05-03T00:09:19.586Z,11.17
2019-05-03T00:11:52.697Z,11.14
2019-05-03T00:14:23.934Z,11.11
2019-05-03T00:16:57.855Z,11.14
2019-05-03T00:19:29.042Z,11.12
2019-05-03T00:22:01.944Z,11.07
2019-05-03T00:24:33.158Z,11.03
2019-05-03T00:27:26.989Z,11.07
2019-05-03T00:30:09.123Z,11.12
2019-05-03T00:32:40.417Z,11.07
2019-05-03T00:35:38.425Z,11.06
2019-05-03T00:38:12.294Z,11.05
2019-05-03T00:40:43.532Z,11.03
2019-05-03T00:43:14.548Z,11.04
2019-05-03T00:45:44.594Z,11.01
2019-05-03T00:48:15.938Z,11.01
2019-05-03T00:50:46.904Z,11.01
2019-05-03T00:53:18.240Z,10.98
2019-05-03T00:55:49.252Z,10.97
2019-05-03T00:58:22.242Z,10.98
2019-05-03T01:00:53.236Z,10.93
2019-05-03T01:03:24.404Z,10.90
2019-05-03T01:05:55.459Z,10.86
2019-05-03T01:08:26.535Z,10.83
2019-05-03T01:10:57.610Z,10.77
2019-05-03T01:13:28.826Z,10.74
2019-05-03T01:16:02.746Z,10.69
2019-05-03T01:18:35.429Z,10.59
2019-05-03T01:21:06.470Z,10.49
2019-05-03T01:23:36.666Z,10.42
2019-05-03T01:26:08.085Z,10.31
2019-05-03T01:28:39.244Z,10.24
2019-05-03T01:31:11.960Z,10.19
2019-05-03T01:33:43.051Z,10.14
2019-05-03T01:36:14.215Z,10.12
2019-05-03T01:38:45.206Z,10.13
2019-05-03T01:41:16.583Z,10.11
2019-05-03T01:43:47.734Z,10.05
2019-05-03T01:46:18.912Z,10.08
2019-05-03T01:48:57.391Z,10.08
2019-05-03T01:51:33.023Z,10.06
2019-05-03T01:54:03.902Z,10.03
2019-05-03T01:56:34.162Z,10.01
2019-05-03T01:59:05.428Z,10.03
2019-05-03T02:01:42.152Z,9.94
2019-05-03T02:04:17.955Z,9.85
2019-05-03T02:06:48.976Z,9.84
2019-05-03T02:09:21.670Z,9.82
2019-05-03T02:11:52.817Z,9.81
2019-05-03T02:14:24.101Z,9.78
2019-05-03T02:16:55.355Z,9.80
2019-05-03T02:19:26.444Z,9.79
2019-05-03T02:21:57.610Z,9.77
2019-05-03T02:24:28.785Z,9.74
2019-05-03T02:26:59.741Z,9.80
2019-05-03T02:29:32.592Z,9.79
2019-05-03T02:32:04.954Z,9.81
2019-05-03T02:34:35.084Z,9.79
2019-05-03T02:37:06.310Z,9.80
2019-05-03T02:39:37.272Z,9.79
2019-05-03T02:42:11.709Z,9.78
2019-05-03T02:44:41.372Z,9.75
2019-05-03T02:47:15.884Z,9.75
2019-05-03T02:49:48.619Z,9.74
2019-05-03T02:52:36.743Z,9.75
2019-05-03T02:55:09.361Z,9.77
2019-05-03T02:57:40.698Z,9.79
2019-05-03T03:00:16.362Z,9.77
2019-05-03T03:02:46.629Z,9.78
2019-05-03T03:05:17.717Z,9.79
2019-05-03T03:07:51.883Z,9.80
2019-05-03T03:10:22.919Z,9.82
2019-05-03T03:12:56.182Z,9.85
2019-05-03T03:15:28.793Z,9.81
2019-05-03T03:18:01.215Z,9.83
2019-05-03T03:20:35.751Z,9.81
2019-05-03T03:23:09.719Z,9.82
2019-05-03T03:25:46.208Z,9.85
2019-05-03T03:28:20.696Z,9.88
2019-05-03T03:31:18.003Z,9.86
2019-05-03T03:33:48.870Z,9.90
2019-05-03T03:36:50.313Z,9.89
2019-05-03T03:38:55.386Z,9.91
2019-05-03T03:41:26.889Z,10.01
2019-05-03T03:43:58.887Z,9.98
2019-05-03T03:46:32.217Z,10.05
2019-05-03T03:49:07.073Z,9.97
2019-05-03T03:51:39.458Z,9.98
2019-05-03T03:54:15.506Z,10.02
2019-05-03T03:57:02.705Z,10.00
2019-05-03T03:59:26.558Z,9.97
2019-05-03T04:01:56.973Z,9.99
2019-05-03T04:04:28.875Z,9.94
2019-05-03T04:07:01.390Z,9.88
2019-05-03T04:09:36.062Z,9.91
2019-05-03T04:12:06.411Z,9.93
2019-05-03T04:14:45.359Z,9.96
2019-05-03T04:17:20.900Z,9.98
2019-05-03T04:19:57.052Z,9.92
2019-05-03T04:22:28.121Z,9.94
2019-05-03T04:24:59.653Z,9.92
2019-05-03T04:27:32.392Z,9.94
2019-05-03T04:30:06.366Z,9.94
2019-05-03T04:33:06.210Z,9.91
2019-05-03T04:35:46.312Z,9.88
2019-05-03T04:38:16.603Z,9.89
2019-05-03T04:40:47.795Z,9.89
2019-05-03T04:43:19.029Z,9.88
2019-05-03T04:46:06.600Z,9.88
2019-05-03T04:48:37.006Z,9.91
2019-05-03T04:51:08.335Z,9.93
2019-05-03T04:53:40.924Z,9.88
2019-05-03T04:56:11.038Z,9.90
2019-05-03T04:58:42.222Z,9.91
2019-05-03T05:01:15.832Z,9.95
2019-05-03T05:03:46.350Z,10.06
2019-05-03T05:06:17.620Z,10.15
2019-05-03T05:08:48.737Z,10.17
2019-05-03T05:11:19.702Z,10.25
2019-05-03T05:13:50.860Z,10.22
2019-05-03T05:16:21.943Z,10.27
2019-05-03T05:19:12.008Z,10.34
2019-05-03T05:21:52.079Z,10.40
2019-05-03T05:24:25.395Z,10.41
2019-05-03T05:27:14.622Z,10.43
2019-05-03T05:29:45.922Z,10.43
2019-05-03T05:32:17.292Z,10.44
2019-05-03T05:34:48.517Z,10.48
2019-05-03T05:37:19.442Z,10.45
2019-05-03T05:39:50.573Z,10.50
2019-05-03T05:42:21.610Z,10.47
2019-05-03T05:44:51.768Z,10.45
2019-05-03T05:47:25.426Z,10.44
2019-05-03T05:49:58.159Z,10.43
2019-05-03T05:52:29.352Z,10.22
2019-05-03T05:55:02.038Z,10.21
2019-05-03T05:57:37.455Z,10.17
2019-05-03T06:00:10.259Z,10.15
2019-05-03T06:02:41.549Z,10.12
2019-05-03T06:05:14.699Z,10.08
2019-05-03T06:07:56.014Z,10.04
2019-05-03T06:10:31.553Z,9.99
2019-05-03T06:13:16.376Z,10.05
2019-05-03T06:15:51.963Z,10.01
2019-05-03T06:18:25.177Z,10.03
2019-05-03T06:20:57.754Z,10.16
2019-05-03T06:23:34.738Z,10.18
2019-05-03T06:26:07.438Z,10.21
2019-05-03T06:28:37.618Z,10.29
2019-05-03T06:31:14.876Z,10.29
2019-05-03T06:33:46.075Z,10.36
2019-05-03T06:36:17.422Z,10.51
2019-05-03T06:38:48.334Z,10.56
2019-05-03T06:41:19.637Z,10.52
2019-05-03T06:43:50.647Z,10.44
2019-05-03T06:46:30.278Z,10.35
2019-05-03T06:48:56.263Z,10.27
2019-05-03T06:51:27.469Z,10.11
2019-05-03T06:53:58.577Z,9.99
2019-05-03T06:56:29.811Z,9.84
2019-05-03T06:59:01.018Z,9.75
2019-05-03T07:01:34.496Z,9.71
2019-05-03T07:04:15.119Z,9.69
2019-05-03T07:06:46.611Z,9.79
2019-05-03T07:09:22.446Z,9.79
2019-05-03T07:11:55.712Z,9.77
2019-05-03T07:14:26.886Z,9.86
2019-05-03T07:16:57.915Z,9.95
2019-05-03T07:19:28.975Z,10.00
2019-05-03T07:21:59.942Z,9.97
2019-05-03T07:24:31.307Z,9.99
2019-05-03T07:27:02.261Z,9.61
2019-05-03T07:29:33.505Z,9.42
2019-05-03T07:32:05.249Z,9.28
2019-05-03T07:34:36.599Z,9.24
2019-05-03T07:37:07.751Z,9.28
2019-05-03T07:39:39.013Z,9.26
2019-05-03T07:42:10.111Z,9.25
2019-05-03T07:44:40.359Z,9.22
2019-05-03T07:47:11.577Z,9.27
2019-05-03T07:49:44.573Z,9.35
2019-05-03T07:52:15.511Z,9.66
2019-05-03T07:54:46.538Z,9.87
2019-05-03T07:57:25.626Z,10.18
2019-05-03T07:59:56.847Z,10.39
2019-05-03T08:02:28.105Z,10.37
2019-05-03T08:04:59.291Z,10.33
2019-05-03T08:07:30.309Z,10.18
2019-05-03T08:10:01.428Z,10.17
2019-05-03T08:12:32.541Z,10.10
2019-05-03T08:15:05.365Z,10.12
2019-05-03T08:17:35.613Z,10.38
2019-05-03T08:20:07.729Z,10.64
2019-05-03T08:22:38.703Z,10.96
2019-05-03T08:25:10.093Z,11.21
2019-05-03T08:27:47.247Z,11.38
2019-05-03T08:30:20.096Z,11.46
2019-05-03T08:32:54.821Z,11.56
2019-05-03T08:35:35.436Z,11.56
2019-05-03T08:38:06.615Z,11.60
2019-05-03T08:40:39.382Z,11.78
2019-05-03T08:43:10.788Z,11.70
2019-05-03T08:45:41.952Z,11.98
2019-05-03T08:48:15.060Z,12.10
2019-05-03T08:50:45.811Z,12.32
2019-05-03T08:53:17.103Z,12.28
2019-05-03T08:55:48.447Z,12.16
2019-05-03T08:58:19.338Z,12.09
2019-05-03T09:00:49.577Z,12.31
2019-05-03T09:03:24.966Z,12.48
2019-05-03T09:05:56.585Z,13.17
2019-05-03T09:08:27.872Z,13.93
2019-05-03T09:11:00.401Z,14.23
2019-05-03T09:13:34.316Z,14.22
2019-05-03T09:16:05.561Z,15.05
2019-05-03T09:18:36.702Z,15.36
2019-05-03T09:21:07.981Z,15.83
2019-05-03T09:23:39.078Z,15.77
2019-05-03T09:26:10.143Z,15.21
2019-05-03T09:28:41.412Z,14.56
2019-05-03T09:31:12.475Z,14.01
2019-05-03T09:33:44.950Z,13.52
2019-05-03T09:36:15.562Z,12.99
2019-05-03T09:38:46.521Z,12.22
2019-05-03T09:41:17.800Z,12.53
2019-05-03T09:43:48.932Z,13.78
2019-05-03T09:46:19.996Z,15.24
2019-05-03T09:48:51.146Z,15.94
2019-05-03T09:51:22.359Z,16.29
2019-05-03T09:53:55.534Z,15.75
2019-05-03T09:56:54.993Z,15.29
2019-05-03T09:59:17.922Z,14.55
2019-05-03T10:01:49.279Z,14.22
2019-05-03T10:04:20.742Z,15.12
2019-05-03T10:06:52.072Z,15.95
2019-05-03T10:09:25.784Z,16.65
2019-05-03T10:11:55.399Z,16.46
2019-05-03T10:14:26.714Z,15.43
2019-05-03T10:17:02.029Z,15.01
2019-05-03T10:19:39.986Z,14.36
2019-05-03T10:22:07.176Z,14.00
2019-05-03T10:24:38.437Z,13.97
2019-05-03T10:27:09.500Z,13.93
2019-05-03T10:29:40.718Z,14.30
2019-05-03T10:32:16.156Z,15.05
2019-05-03T10:35:01.322Z,15.25
2019-05-03T10:37:35.900Z,15.92
2019-05-03T10:40:08.713Z,16.74
2019-05-03T10:42:39.830Z,16.97
2019-05-03T10:45:11.262Z,17.08
2019-05-03T10:47:42.300Z,17.44
2019-05-03T10:50:15.581Z,16.60
2019-05-03T10:52:51.057Z,16.05
2019-05-03T10:55:21.286Z,16.82
2019-05-03T10:57:57.233Z,16.81
2019-05-03T11:00:50.239Z,16.55
2019-05-03T11:03:02.725Z,16.01
2019-05-03T11:05:34.832Z,16.02
2019-05-03T11:08:06.029Z,16.17
2019-05-03T11:10:37.167Z,15.68
2019-05-03T11:13:08.376Z,15.36
2019-05-03T11:15:39.322Z,15.49
2019-05-03T11:18:10.734Z,15.60
2019-05-03T11:20:41.948Z,15.31
2019-05-03T11:23:14.661Z,15.65
2019-05-03T11:25:45.769Z,15.92
2019-05-03T11:28:21.607Z,16.30
2019-05-03T11:30:57.796Z,16.59
2019-05-03T11:33:31.966Z,17.02
2019-05-03T11:36:07.952Z,16.93
2019-05-03T11:38:40.543Z,16.17
2019-05-03T11:41:12.190Z,16.24
2019-05-03T11:43:44.367Z,16.00
2019-05-03T11:46:16.033Z,15.75
2019-05-03T11:48:47.093Z,17.03
2019-05-03T11:51:18.485Z,16.55
2019-05-03T11:53:49.451Z,17.00
2019-05-03T11:56:20.653Z,17.18
2019-05-03T11:58:51.639Z,18.40
2019-05-03T12:01:25.665Z,18.70
2019-05-03T12:03:57.045Z,18.15
2019-05-03T12:06:28.324Z,17.13
2019-05-03T12:08:59.322Z,16.27
2019-05-03T12:11:31.098Z,15.44
2019-05-03T12:14:12.309Z,15.21
2019-05-03T12:19:29.993Z,14.45
2019-05-03T12:21:57.051Z,14.21
2019-05-03T12:24:29.026Z,14.05
2019-05-03T12:27:00.609Z,14.19
2019-05-03T12:29:31.755Z,13.90
2019-05-03T12:32:02.681Z,13.86
2019-05-03T12:34:35.266Z,13.97
2019-05-03T12:37:06.409Z,14.31
2019-05-03T12:39:37.773Z,15.43
2019-05-03T12:42:09.481Z,16.58
2019-05-03T12:44:40.740Z,16.16
2019-05-03T12:47:14.578Z,15.17
2019-05-03T12:49:45.236Z,14.75
2019-05-03T12:52:17.526Z,15.15
2019-05-03T12:54:48.933Z,17.47
2019-05-03T12:57:20.167Z,17.69
2019-05-03T12:59:55.926Z,16.81
2019-05-03T13:02:37.738Z,15.70
2019-05-03T13:05:08.817Z,14.97
2019-05-03T13:07:45.496Z,14.21
2019-05-03T13:10:22.172Z,13.84
2019-05-03T13:12:53.136Z,13.60
2019-05-03T13:15:24.477Z,13.51
2019-05-03T13:17:55.468Z,13.56
2019-05-03T13:20:26.514Z,13.68
2019-05-03T13:22:57.608Z,13.56
2019-05-03T13:25:28.566Z,13.70
2019-05-03T13:27:59.785Z,13.83
2019-05-03T13:30:30.916Z,14.04
2019-05-03T13:33:01.058Z,14.14
2019-05-03T13:35:32.194Z,14.14
2019-05-03T13:38:03.154Z,14.46
2019-05-03T13:40:35.916Z,14.64
2019-05-03T13:43:07.103Z,14.73
2019-05-03T13:45:38.698Z,14.87
2019-05-03T13:48:09.925Z,15.00
2019-05-03T13:50:41.118Z,15.30
2019-05-03T13:53:12.114Z,15.43
2019-05-03T13:55:44.526Z,15.45
2019-05-03T13:58:16.533Z,15.41
2019-05-03T14:00:47.862Z,14.75
2019-05-03T14:03:18.950Z,14.51
2019-05-03T14:05:48.984Z,14.76
2019-05-03T14:08:20.444Z,14.87
2019-05-03T14:10:51.400Z,14.98
2019-05-03T14:13:22.616Z,15.04
2019-05-03T14:15:54.792Z,14.90
2019-05-03T14:18:26.153Z,14.38
2019-05-03T14:20:58.784Z,14.48
2019-05-03T14:23:29.953Z,14.39
2019-05-03T14:26:01.022Z,14.44
2019-05-03T14:28:32.238Z,14.66
2019-05-03T14:31:05.137Z,14.50
2019-05-03T14:33:37.248Z,14.53
2019-05-03T14:36:08.493Z,14.17
2019-05-03T14:38:38.929Z,14.01
2019-05-03T14:41:10.860Z,13.66
2019-05-03T14:44:04.876Z,13.40
2019-05-03T14:46:36.489Z,13.13
2019-05-03T14:49:07.562Z,13.35
2019-05-03T14:51:38.988Z,13.55
2019-05-03T14:54:10.414Z,13.73
2019-05-03T14:56:45.352Z,13.66
2019-05-03T14:59:34.558Z,13.58
2019-05-03T15:02:15.425Z,13.45
2019-05-03T15:04:46.212Z,13.20
2019-05-03T15:07:17.562Z,13.24
2019-05-03T15:09:48.478Z,13.35
2019-05-03T15:12:19.753Z,13.41
2019-05-03T15:14:50.735Z,13.45
2019-05-03T15:17:21.878Z,13.63
2019-05-03T15:19:54.723Z,13.66
2019-05-03T15:22:26.289Z,13.78
2019-05-03T15:24:57.373Z,14.04
2019-05-03T15:27:29.539Z,14.14
2019-05-03T15:30:01.344Z,13.87
2019-05-03T15:32:35.237Z,14.17
2019-05-03T15:35:08.603Z,14.27
2019-05-03T15:37:39.505Z,14.32
2019-05-03T15:40:11.234Z,14.22
2019-05-03T15:42:45.118Z,13.80
2019-05-03T15:45:35.089Z,13.94
2019-05-03T15:48:07.986Z,13.79
2019-05-03T15:50:39.219Z,14.09
2019-05-03T15:53:15.262Z,14.81
2019-05-03T15:55:46.590Z,15.11
2019-05-03T15:58:17.569Z,15.45
2019-05-03T16:00:49.755Z,15.10
2019-05-03T16:03:21.383Z,14.89
2019-05-03T16:05:55.638Z,14.82
2019-05-03T16:08:27.385Z,15.37
2019-05-03T16:10:58.737Z,15.26
2019-05-03T16:13:32.104Z,14.78
2019-05-03T16:16:04.388Z,14.22
2019-05-03T16:18:37.455Z,14.04
2019-05-03T16:21:08.659Z,14.18
2019-05-03T16:23:40.165Z,14.06
2019-05-03T16:26:11.118Z,14.00
2019-05-03T16:28:46.340Z,13.69
2019-05-03T16:31:19.359Z,13.30
2019-05-03T16:33:50.821Z,13.15
2019-05-03T16:36:22.561Z,12.99
2019-05-03T16:38:55.376Z,13.04
2019-05-03T16:41:26.898Z,13.12
2019-05-03T16:44:03.446Z,13.15
2019-05-03T16:46:35.143Z,12.97
2019-05-03T16:49:06.534Z,12.89
2019-05-03T16:51:38.936Z,12.85
2019-05-03T16:54:10.749Z,12.74
2019-05-03T16:56:42.146Z,12.75
2019-05-03T16:59:14.781Z,12.72
2019-05-03T17:01:46.856Z,12.65
2019-05-03T17:04:35.757Z,12.53
2019-05-03T17:07:16.252Z,12.62
2019-05-03T17:09:48.786Z,12.55
2019-05-03T17:12:34.834Z,12.60
2019-05-03T17:15:10.275Z,12.53
2019-05-03T17:17:45.108Z,12.51
2019-05-03T17:20:19.184Z,12.61
2019-05-03T17:22:50.528Z,12.71
2019-05-03T17:25:22.013Z,12.77
2019-05-03T17:27:57.367Z,12.74
2019-05-03T17:30:34.037Z,12.78
2019-05-03T17:33:04.503Z,12.68
2019-05-03T17:35:36.557Z,12.51
2019-05-03T17:38:07.193Z,12.37
2019-05-03T17:40:44.254Z,12.29
2019-05-03T17:43:17.460Z,12.18
2019-05-03T17:45:56.927Z,12.16
2019-05-03T17:48:28.300Z,12.16
2019-05-03T17:50:59.828Z,12.04
2019-05-03T17:53:37.478Z,11.97
2019-05-03T17:56:11.241Z,11.93
2019-05-03T17:58:55.190Z,11.93
2019-05-03T18:01:30.907Z,11.88
2019-05-03T18:04:24.827Z,11.84
2019-05-03T18:07:01.341Z,11.79
2019-05-03T18:09:35.026Z,11.61
2019-05-03T18:12:07.572Z,11.42
2019-05-03T18:14:39.072Z,11.22
2019-05-03T18:17:14.818Z,11.12
2019-05-03T18:19:47.852Z,11.06
2019-05-03T18:22:20.479Z,10.97
2019-05-03T18:24:51.700Z,10.92
2019-05-03T18:27:25.085Z,10.88
2019-05-03T18:29:59.586Z,10.75
2019-05-03T18:32:30.092Z,10.63
2019-05-03T18:35:06.195Z,10.60
2019-05-03T18:37:42.207Z,10.59
2019-05-03T18:40:19.210Z,10.51
2019-05-03T18:43:07.156Z,10.43
2019-05-03T18:46:04.969Z,10.27
2019-05-03T18:48:44.576Z,10.11
2019-05-03T18:51:26.285Z,9.92
2019-05-03T18:54:08.109Z,9.83
2019-05-03T18:56:39.925Z,9.73
2019-05-03T19:02:45.061Z,9.56
2019-05-03T19:05:24.350Z,9.46
2019-05-03T19:08:06.538Z,9.40
2019-05-03T19:10:44.610Z,9.36
2019-05-03T19:13:17.401Z,9.28
2019-05-03T19:15:48.864Z,9.20
2019-05-03T19:18:21.872Z,9.07
2019-05-03T19:20:54.980Z,8.97
2019-05-03T19:23:25.924Z,8.86
2019-05-03T19:25:56.899Z,8.74
2019-05-03T19:28:28.161Z,8.71
2019-05-03T19:30:59.255Z,8.64
2019-05-03T19:33:30.503Z,8.65
2019-05-03T19:36:01.512Z,8.63
2019-05-03T19:38:32.738Z,8.60
2019-05-03T19:41:03.883Z,8.66
2019-05-03T19:43:35.570Z,8.63
2019-05-03T19:46:07.406Z,8.63
2019-05-03T19:48:39.083Z,8.56
2019-05-03T19:51:10.314Z,8.43
2019-05-03T19:53:45.856Z,8.27
2019-05-03T19:56:17.497Z,8.22
2019-05-03T19:58:48.843Z,8.26
2019-05-03T20:01:28.072Z,8.41
2019-05-03T20:04:00.765Z,8.43
2019-05-03T20:06:36.325Z,8.50
2019-05-03T20:09:12.747Z,8.61
2019-05-03T20:11:45.961Z,8.66
2019-05-03T20:14:16.827Z,8.64
2019-05-03T20:16:48.065Z,8.59
2019-05-03T20:19:25.713Z,8.50
2019-05-03T20:22:05.180Z,8.39
2019-05-03T20:24:40.461Z,8.38
2019-05-03T20:27:19.619Z,8.34
2019-05-03T20:30:02.187Z,8.29
2019-05-03T20:32:39.999Z,8.21
2019-05-03T20:35:18.454Z,8.28
2019-05-03T20:37:44.862Z,8.31
2019-05-03T20:40:21.908Z,8.30
2019-05-03T20:43:05.023Z,8.26
2019-05-03T20:45:38.557Z,8.21
2019-05-03T20:48:19.605Z,8.19
2019-05-03T20:50:55.277Z,8.13
2019-05-03T20:53:35.973Z,8.07
2019-05-03T20:56:12.414Z,7.97
2019-05-03T20:58:44.686Z,7.87
2019-05-03T21:01:16.025Z,7.82
2019-05-03T21:03:47.044Z,7.77
2019-05-03T21:06:18.294Z,7.75
2019-05-03T21:08:53.140Z,7.77
2019-05-03T21:11:22.401Z,7.79
2019-05-03T21:13:53.271Z,7.77
2019-05-03T21:16:34.431Z,7.74
2019-05-03T21:19:09.474Z,7.73
2019-05-03T21:21:48.147Z,7.79
2019-05-03T21:24:20.758Z,7.73
2019-05-03T21:26:50.781Z,7.69
2019-05-03T21:29:22.327Z,7.54
2019-05-03T21:31:55.132Z,7.39
2019-05-03T21:34:26.796Z,7.36
2019-05-03T21:36:58.144Z,7.29
2019-05-03T21:39:29.288Z,7.29
2019-05-03T21:42:00.426Z,7.34
2019-05-03T21:44:40.706Z,7.43
2019-05-03T21:47:15.180Z,7.42
2019-05-03T21:49:48.235Z,7.35
2019-05-03T21:52:19.152Z,7.26
2019-05-03T21:54:50.532Z,7.09
2019-05-03T21:57:21.626Z,6.94
2019-05-03T21:59:52.677Z,6.80
2019-05-03T22:02:24.670Z,6.70
2019-05-03T22:04:54.931Z,6.68
2019-05-03T22:07:26.828Z,6.59
2019-05-03T22:09:58.020Z,6.54
2019-05-03T22:12:29.535Z,6.55
2019-05-03T22:15:10.934Z,6.57
2019-05-03T22:17:52.971Z,6.61
2019-05-03T22:20:28.432Z,6.63
2019-05-03T22:23:01.406Z,6.70
2019-05-03T22:25:34.894Z,6.75
2019-05-03T22:28:07.167Z,6.83
2019-05-03T22:30:38.330Z,6.90
2019-05-03T22:33:09.571Z,6.99
2019-05-03T22:35:40.569Z,7.02
2019-05-03T22:38:11.827Z,7.04
2019-05-03T22:40:44.278Z,7.14
2019-05-03T22:43:15.792Z,7.16
2019-05-03T22:45:46.818Z,7.22
2019-05-03T22:48:16.982Z,7.28
2019-05-03T22:50:48.138Z,7.34
2019-05-03T22:53:19.016Z,7.37
2019-05-03T22:55:50.085Z,7.36
2019-05-03T22:58:21.052Z,7.34
2019-05-03T23:00:52.145Z,7.32
2019-05-03T23:03:24.878Z,7.33
2019-05-03T23:05:58.573Z,7.31
2019-05-03T23:08:29.478Z,7.28
2019-05-03T23:11:00.652Z,7.26
2019-05-03T23:13:31.645Z,7.24
2019-05-03T23:16:05.046Z,7.21
2019-05-03T23:18:35.665Z,7.20
2019-05-03T23:21:07.644Z,7.19
2019-05-03T23:23:48.820Z,7.16
2019-05-03T23:26:19.137Z,7.16
2019-05-03T23:28:50.657Z,7.19
2019-05-03T23:31:21.653Z,7.18
2019-05-03T23:33:54.475Z,7.16
2019-05-03T23:36:33.212Z,7.22
2019-05-03T23:38:58.415Z,7.24
2019-05-03T23:41:29.361Z,7.27
2019-05-03T23:44:00.487Z,7.31
2019-05-03T23:46:34.803Z,7.31
2019-05-03T23:49:06.081Z,7.32
2019-05-03T23:51:44.525Z,7.34
2019-05-03T23:54:15.743Z,7.31
2019-05-03T23:56:46.823Z,7.32
2019-05-03T23:59:17.080Z,7.32
